createdAt,value
2019-05-13T00:00:24.228Z,73.57
2019-05-13T00:02:54.384Z,73.51
2019-05-13T00:05:23.477Z,73.90
2019-05-13T00:07:53.960Z,73.19
2019-05-13T00:10:24.329Z,73.03
2019-05-13T00:12:53.972Z,73.11
2019-05-13T00:15:24.267Z,72.64
2019-05-13T00:17:54.402Z,72.69
2019-05-13T00:20:24.121Z,71.86
2019-05-13T00:22:53.854Z,71.99
2019-05-13T00:25:24.181Z,71.71
2019-05-13T00:27:53.708Z,71.73
2019-05-13T00:30:23.461Z,70.91
2019-05-13T00:32:54.459Z,70.93
2019-05-13T00:35:23.348Z,70.80
2019-05-13T00:37:54.231Z,71.17
2019-05-13T00:40:24.055Z,70.89
2019-05-13T00:42:54.502Z,70.65
2019-05-13T00:45:24.510Z,70.84
2019-05-13T00:47:53.667Z,70.57
2019-05-13T00:50:24.117Z,71.14
2019-05-13T00:52:53.692Z,71.15
2019-05-13T00:55:23.811Z,70.94
2019-05-13T00:57:54.124Z,70.74
2019-05-13T01:00:24.327Z,70.88
2019-05-13T01:02:53.440Z,70.80
2019-05-13T01:05:23.437Z,71.32
2019-05-13T01:07:53.735Z,70.76
2019-05-13T01:10:23.800Z,71.21
2019-05-13T01:12:53.925Z,70.83
2019-05-13T01:15:24.751Z,71.03
2019-05-13T01:17:53.537Z,70.90
2019-05-13T01:20:23.543Z,70.74
2019-05-13T01:22:54.150Z,70.44
2019-05-13T01:25:24.456Z,70.52
2019-05-13T01:27:53.729Z,70.28
2019-05-13T01:30:23.815Z,70.08
2019-05-13T01:32:54.055Z,70.08
2019-05-13T01:35:23.628Z,69.86
2019-05-13T01:37:53.866Z,69.80
2019-05-13T01:40:23.966Z,70.02
2019-05-13T01:42:54.164Z,69.76
2019-05-13T01:45:24.058Z,70.17
2019-05-13T01:47:54.417Z,70.19
2019-05-13T01:50:24.156Z,70.32
2019-05-13T01:52:53.390Z,70.39
2019-05-13T01:55:24.298Z,70.58
2019-05-13T01:57:53.382Z,70.48
2019-05-13T02:00:24.221Z,70.31
2019-05-13T02:02:54.513Z,70.49
2019-05-13T02:05:24.254Z,70.58
2019-05-13T02:07:57.689Z,70.07
2019-05-13T02:10:40.926Z,69.96
2019-05-13T02:13:09.551Z,70.30
2019-05-13T02:15:38.226Z,70.24
2019-05-13T02:18:06.924Z,70.52
2019-05-13T02:20:35.549Z,70.83
2019-05-13T02:23:04.264Z,70.57
2019-05-13T02:25:34.064Z,70.47
2019-05-13T02:28:09.283Z,70.61
2019-05-13T02:30:34.954Z,70.48
2019-05-13T02:33:03.830Z,70.22
2019-05-13T02:35:32.790Z,70.09
2019-05-13T02:38:18.357Z,70.32
2019-05-13T02:40:32.720Z,70.17
2019-05-13T02:43:02.916Z,70.06
2019-05-13T02:45:33.517Z,70.40
2019-05-13T02:48:03.211Z,70.21
2019-05-13T02:50:33.763Z,70.24
2019-05-13T02:53:02.760Z,70.25
2019-05-13T02:55:32.853Z,70.34
2019-05-13T02:58:03.391Z,70.51
2019-05-13T03:00:32.994Z,70.27
2019-05-13T03:03:03.186Z,70.27
2019-05-13T03:05:32.214Z,70.38
2019-05-13T03:08:03.454Z,70.04
2019-05-13T03:10:33.049Z,69.89
2019-05-13T03:13:03.562Z,69.90
2019-05-13T03:15:42.864Z,70.29
2019-05-13T03:18:13.249Z,70.45
2019-05-13T03:20:43.055Z,70.48
2019-05-13T03:23:13.502Z,71.15
2019-05-13T03:25:43.060Z,71.21
2019-05-13T03:28:13.437Z,70.60
2019-05-13T03:30:45.732Z,71.27
2019-05-13T03:33:18.803Z,71.03
2019-05-13T03:35:45.475Z,71.02
2019-05-13T03:38:13.321Z,70.77
2019-05-13T03:40:42.784Z,71.09
2019-05-13T03:43:12.910Z,71.06
2019-05-13T03:45:43.344Z,70.81
2019-05-13T03:48:13.002Z,70.77
2019-05-13T03:50:43.406Z,71.06
2019-05-13T03:53:13.193Z,71.23
2019-05-13T03:55:43.401Z,71.21
2019-05-13T03:58:13.224Z,71.66
2019-05-13T04:00:42.756Z,71.64
2019-05-13T04:03:13.524Z,71.71
2019-05-13T04:05:43.732Z,72.07
2019-05-13T04:08:13.389Z,71.85
2019-05-13T04:10:42.380Z,72.10
2019-05-13T04:13:12.446Z,72.17
2019-05-13T04:15:42.787Z,72.34
2019-05-13T04:18:12.539Z,72.46
2019-05-13T04:20:42.437Z,72.50
2019-05-13T04:23:12.850Z,72.69
2019-05-13T04:25:44.777Z,72.60
2019-05-13T04:28:13.390Z,72.02
2019-05-13T04:30:43.562Z,72.45
2019-05-13T04:33:13.913Z,71.90
2019-05-13T04:35:43.015Z,71.91
2019-05-13T04:38:13.163Z,72.07
2019-05-13T04:40:42.604Z,71.96
2019-05-13T04:43:12.956Z,72.16
2019-05-13T04:45:43.006Z,72.10
2019-05-13T04:48:12.798Z,72.17
2019-05-13T04:50:43.203Z,71.82
2019-05-13T04:53:13.690Z,71.98
2019-05-13T04:55:42.917Z,71.90
2019-05-13T04:58:12.939Z,71.81
2019-05-13T05:01:09.543Z,71.70
2019-05-13T05:03:46.347Z,71.10
2019-05-13T05:06:23.686Z,70.96
2019-05-13T05:10:10.561Z,71.15
2019-05-13T05:12:42.505Z,70.30
2019-05-13T05:15:54.377Z,69.80
2019-05-13T05:18:52.491Z,69.65
2019-05-13T05:21:25.359Z,69.92
2019-05-13T05:24:41.697Z,69.41
2019-05-13T05:27:42.096Z,69.97
2019-05-13T05:30:51.884Z,69.32
2019-05-13T05:33:35.091Z,69.35
2019-05-13T05:36:24.557Z,69.05
2019-05-13T05:39:06.985Z,68.65
2019-05-13T05:41:36.372Z,68.30
2019-05-13T05:44:07.700Z,67.52
2019-05-13T05:46:42.454Z,67.47
2019-05-13T05:49:12.705Z,67.18
2019-05-13T05:51:41.958Z,67.84
2019-05-13T05:54:14.468Z,67.26
2019-05-13T05:56:42.150Z,67.44
2019-05-13T05:59:12.474Z,66.67
2019-05-13T06:01:43.561Z,65.90
2019-05-13T06:04:12.788Z,65.58
2019-05-13T06:06:42.175Z,65.11
2019-05-13T06:09:12.220Z,65.00
2019-05-13T06:11:41.706Z,65.45
2019-05-13T06:14:11.286Z,65.37
2019-05-13T06:16:42.407Z,65.10
2019-05-13T06:19:12.104Z,65.30
2019-05-13T06:21:42.061Z,64.89
2019-05-13T06:24:11.680Z,64.69
2019-05-13T06:26:41.940Z,63.87
2019-05-13T06:29:11.681Z,63.64
2019-05-13T06:31:41.952Z,63.90
2019-05-13T06:34:12.654Z,64.47
2019-05-13T06:36:41.877Z,64.61
2019-05-13T06:39:12.332Z,65.44
2019-05-13T06:41:41.732Z,64.79
2019-05-13T06:44:12.138Z,64.10
2019-05-13T06:46:42.371Z,64.10
2019-05-13T06:49:12.184Z,64.11
2019-05-13T06:51:41.771Z,63.85
2019-05-13T06:54:11.256Z,64.13
2019-05-13T06:56:42.727Z,63.22
2019-05-13T06:59:11.898Z,62.75
2019-05-13T07:01:42.359Z,63.36
2019-05-13T07:04:11.749Z,63.82
2019-05-13T07:06:41.844Z,64.19
2019-05-13T07:09:11.984Z,64.27
2019-05-13T07:11:41.757Z,64.07
2019-05-13T07:14:12.762Z,63.92
2019-05-13T07:16:42.134Z,63.30
2019-05-13T07:19:11.685Z,62.44
2019-05-13T07:21:41.715Z,62.85
2019-05-13T07:24:12.783Z,63.14
2019-05-13T07:26:41.903Z,62.88
2019-05-13T07:29:12.735Z,62.12
2019-05-13T07:31:42.207Z,62.01
2019-05-13T07:34:11.694Z,61.91
2019-05-13T07:36:42.154Z,62.29
2019-05-13T07:39:11.934Z,63.00
2019-05-13T07:41:43.037Z,63.41
2019-05-13T07:44:11.994Z,63.37
2019-05-13T07:46:42.625Z,62.51
2019-05-13T07:49:11.978Z,61.78
2019-05-13T07:51:42.097Z,61.77
2019-05-13T07:54:11.500Z,61.29
2019-05-13T07:56:42.591Z,60.43
2019-05-13T07:59:12.332Z,60.43
2019-05-13T08:01:41.879Z,60.46
2019-05-13T08:04:22.107Z,58.72
2019-05-13T08:06:41.723Z,58.16
2019-05-13T08:09:12.818Z,57.44
2019-05-13T08:12:00.548Z,57.98
2019-05-13T08:14:12.391Z,56.95
2019-05-13T08:16:42.691Z,57.21
2019-05-13T08:19:12.267Z,57.04
2019-05-13T08:21:41.801Z,56.82
2019-05-13T08:24:11.944Z,55.00
2019-05-13T08:26:45.117Z,54.40
2019-05-13T08:29:11.531Z,54.41
2019-05-13T08:31:41.269Z,54.82
2019-05-13T08:34:11.822Z,54.60
2019-05-13T08:36:42.628Z,53.41
2019-05-13T08:39:12.724Z,54.61
2019-05-13T08:41:42.305Z,55.20
2019-05-13T08:44:12.378Z,54.05
2019-05-13T08:46:41.653Z,54.13
2019-05-13T08:49:11.852Z,55.02
2019-05-13T08:51:42.086Z,54.06
2019-05-13T08:54:11.648Z,53.32
2019-05-13T08:56:41.697Z,52.51
2019-05-13T08:59:11.556Z,52.92
2019-05-13T09:01:42.740Z,52.72
2019-05-13T09:04:11.865Z,51.55
2019-05-13T09:06:41.902Z,51.17
2019-05-13T09:09:11.768Z,50.84
2019-05-13T09:11:42.224Z,50.61
2019-05-13T09:14:11.355Z,51.46
2019-05-13T09:16:41.852Z,51.08
2019-05-13T09:19:15.785Z,50.45
2019-05-13T09:21:42.300Z,50.00
2019-05-13T09:24:21.743Z,49.71
2019-05-13T09:26:42.213Z,49.28
2019-05-13T09:29:11.913Z,48.63
2019-05-13T09:31:41.609Z,48.96
2019-05-13T09:34:12.140Z,49.25
2019-05-13T09:36:41.711Z,47.19
2019-05-13T09:39:12.599Z,48.06
2019-05-13T09:41:44.503Z,47.42
2019-05-13T09:44:12.527Z,46.33
2019-05-13T09:46:42.503Z,45.75
2019-05-13T09:49:19.201Z,46.43
2019-05-13T09:51:41.935Z,45.61
2019-05-13T09:54:11.646Z,44.92
2019-05-13T09:56:41.439Z,44.94
2019-05-13T09:59:11.768Z,43.01
2019-05-13T10:01:42.572Z,43.45
2019-05-13T10:04:11.916Z,43.47
2019-05-13T10:06:42.056Z,42.57
2019-05-13T10:09:12.555Z,43.56
2019-05-13T10:11:41.573Z,42.14
2019-05-13T10:14:11.677Z,42.68
2019-05-13T10:16:42.455Z,42.48
2019-05-13T10:19:12.717Z,40.93
2019-05-13T10:21:42.295Z,41.72
2019-05-13T10:24:12.603Z,40.77
2019-05-13T10:26:42.857Z,40.56
2019-05-13T10:29:12.261Z,37.72
2019-05-13T10:31:41.979Z,38.74
2019-05-13T10:34:13.645Z,39.38
2019-05-13T10:36:42.150Z,38.90
2019-05-13T10:39:11.810Z,38.06
2019-05-13T10:41:42.262Z,38.64
2019-05-13T10:44:12.294Z,36.79
2019-05-13T10:46:42.553Z,37.50
2019-05-13T10:49:12.265Z,38.15
2019-05-13T10:51:41.949Z,38.00
2019-05-13T10:54:10.827Z,37.71
2019-05-13T10:56:39.467Z,36.77
2019-05-13T10:59:08.231Z,35.44
2019-05-13T11:01:36.926Z,35.77
2019-05-13T11:04:05.650Z,34.85
2019-05-13T11:06:34.346Z,35.42
2019-05-13T11:09:05.033Z,34.11
2019-05-13T11:11:33.647Z,34.30
2019-05-13T11:14:10.115Z,32.99
2019-05-13T11:16:32.808Z,31.94
2019-05-13T11:19:02.923Z,32.17
2019-05-13T11:21:32.231Z,31.76
2019-05-13T11:24:03.328Z,30.67
2019-05-13T11:26:36.154Z,29.63
2019-05-13T11:29:02.802Z,29.78
2019-05-13T11:31:32.918Z,31.13
2019-05-13T11:34:02.134Z,31.57
2019-05-13T11:36:33.374Z,31.75
2019-05-13T11:39:02.947Z,32.17
2019-05-13T11:41:32.599Z,32.23
2019-05-13T11:44:12.797Z,31.32
2019-05-13T11:46:33.291Z,31.98
2019-05-13T11:49:02.679Z,31.97
2019-05-13T11:51:31.987Z,31.40
2019-05-13T11:54:02.418Z,31.01
2019-05-13T11:56:33.803Z,32.07
2019-05-13T11:59:04.427Z,30.49
2019-05-13T12:01:33.493Z,30.90
2019-05-13T12:04:02.943Z,30.68
2019-05-13T12:06:33.894Z,30.96
2019-05-13T12:09:03.043Z,30.72
2019-05-13T12:11:33.319Z,31.20
2019-05-13T12:14:02.106Z,31.38
2019-05-13T12:16:34.747Z,30.87
2019-05-13T12:19:03.519Z,30.91
2019-05-13T12:21:31.556Z,30.91
2019-05-13T12:24:09.144Z,31.86
2019-05-13T12:26:33.270Z,30.26
2019-05-13T12:29:02.752Z,29.76
2019-05-13T12:31:33.568Z,29.06
2019-05-13T12:34:03.600Z,29.30
2019-05-13T12:36:33.001Z,29.33
2019-05-13T12:39:01.784Z,29.29
2019-05-13T12:41:33.023Z,29.50
2019-05-13T12:44:01.824Z,29.64
2019-05-13T12:46:30.795Z,28.11
2019-05-13T12:48:59.419Z,29.03
2019-05-13T12:51:28.198Z,28.45
2019-05-13T12:53:56.818Z,28.93
2019-05-13T12:56:25.544Z,30.07
2019-05-13T12:58:54.364Z,28.68
2019-05-13T13:01:23.807Z,29.34
2019-05-13T13:03:52.734Z,28.94
2019-05-13T13:06:32.433Z,28.88
2019-05-13T13:08:51.849Z,28.57
2019-05-13T13:11:22.803Z,28.88
2019-05-13T13:14:01.181Z,28.38
2019-05-13T13:16:22.061Z,28.07
2019-05-13T13:18:52.531Z,28.83
2019-05-13T13:21:24.436Z,29.06
2019-05-13T13:23:51.511Z,27.13
2019-05-13T13:26:21.728Z,26.91
2019-05-13T13:28:55.532Z,26.62
2019-05-13T13:31:24.958Z,27.34
2019-05-13T13:33:55.163Z,28.12
2019-05-13T13:36:24.166Z,28.01
2019-05-13T13:38:56.102Z,27.73
2019-05-13T13:41:23.067Z,28.49
2019-05-13T13:43:53.932Z,28.86
2019-05-13T13:46:33.728Z,29.23
2019-05-13T13:48:55.244Z,29.88
2019-05-13T13:51:26.334Z,29.31
2019-05-13T13:53:56.400Z,29.47
2019-05-13T13:56:25.192Z,28.82
2019-05-13T13:58:54.350Z,28.28
2019-05-13T14:01:27.326Z,29.54
2019-05-13T14:03:53.484Z,29.97
2019-05-13T14:07:22.925Z,29.80
2019-05-13T14:08:52.566Z,29.45
2019-05-13T14:11:23.215Z,29.57
2019-05-13T14:13:51.944Z,29.94
2019-05-13T14:16:29.532Z,30.45
2019-05-13T14:18:52.300Z,30.05
2019-05-13T14:21:21.630Z,31.05
2019-05-13T14:23:52.039Z,30.50
2019-05-13T14:26:22.228Z,30.50
2019-05-13T14:28:53.657Z,30.21
2019-05-13T14:31:21.585Z,30.35
2019-05-13T14:33:51.942Z,30.59
2019-05-13T14:36:23.148Z,30.66
2019-05-13T14:38:52.733Z,31.27
2019-05-13T14:41:22.017Z,31.83
2019-05-13T14:43:51.675Z,31.54
2019-05-13T14:46:27.087Z,31.19
2019-05-13T14:48:51.113Z,30.76
2019-05-13T14:51:21.834Z,31.70
2019-05-13T14:53:52.010Z,31.71
2019-05-13T14:56:22.147Z,32.02
2019-05-13T14:58:52.048Z,32.27
2019-05-13T15:01:22.690Z,32.14
2019-05-13T15:03:52.140Z,32.59
2019-05-13T15:06:22.120Z,32.36
2019-05-13T15:08:52.722Z,32.64
2019-05-13T15:11:22.070Z,33.32
2019-05-13T15:13:51.741Z,32.28
2019-05-13T15:16:22.443Z,32.81
2019-05-13T15:18:52.555Z,33.06
2019-05-13T15:21:21.480Z,33.29
2019-05-13T15:23:51.717Z,32.92
2019-05-13T15:26:22.239Z,33.29
2019-05-13T15:28:52.180Z,33.50
2019-05-13T15:31:22.087Z,33.43
2019-05-13T15:33:52.430Z,33.64
2019-05-13T15:36:22.557Z,33.91
2019-05-13T15:38:52.124Z,33.43
2019-05-13T15:41:20.901Z,33.62
2019-05-13T15:43:51.852Z,32.95
2019-05-13T15:46:21.998Z,33.47
2019-05-13T15:48:51.457Z,32.99
2019-05-13T15:51:22.099Z,32.75
2019-05-13T15:53:51.684Z,33.17
2019-05-13T15:56:22.410Z,32.68
2019-05-13T15:58:53.045Z,32.48
2019-05-13T16:01:22.910Z,32.56
2019-05-13T16:03:52.415Z,32.34
2019-05-13T16:06:21.485Z,32.38
2019-05-13T16:08:51.922Z,31.81
2019-05-13T16:11:21.947Z,32.12
2019-05-13T16:13:51.861Z,32.13
2019-05-13T16:16:22.002Z,32.14
2019-05-13T16:18:51.766Z,32.28
2019-05-13T16:21:20.496Z,31.96
2019-05-13T16:23:51.408Z,31.52
2019-05-13T16:26:19.619Z,32.29
2019-05-13T16:28:48.235Z,31.22
2019-05-13T16:31:16.858Z,31.58
2019-05-13T16:33:45.532Z,31.07
2019-05-13T16:36:14.227Z,31.79
2019-05-13T16:38:42.855Z,32.14
2019-05-13T16:41:12.371Z,31.30
2019-05-13T16:43:42.662Z,31.80
2019-05-13T16:46:12.219Z,32.45
2019-05-13T16:48:41.689Z,32.84
2019-05-13T16:51:12.398Z,32.95
2019-05-13T16:53:42.136Z,33.78
2019-05-13T16:56:25.755Z,32.86
2019-05-13T16:58:41.978Z,33.32
2019-05-13T17:01:11.868Z,33.15
2019-05-13T17:03:41.465Z,31.81
2019-05-13T17:06:12.463Z,31.78
2019-05-13T17:08:42.422Z,32.24
2019-05-13T17:11:11.980Z,32.24
2019-05-13T17:13:42.187Z,31.31
2019-05-13T17:16:11.206Z,30.62
2019-05-13T17:18:41.699Z,30.62
2019-05-13T17:21:10.147Z,31.46
2019-05-13T17:23:38.769Z,30.79
2019-05-13T17:26:07.689Z,30.31
2019-05-13T17:28:36.364Z,30.32
2019-05-13T17:31:04.988Z,31.13
2019-05-13T17:33:33.676Z,30.79
2019-05-13T17:36:02.544Z,30.79
2019-05-13T17:38:32.335Z,31.59
2019-05-13T17:41:02.149Z,31.22
2019-05-13T17:43:32.164Z,31.54
2019-05-13T17:46:01.108Z,30.88
2019-05-13T17:48:32.794Z,31.92
2019-05-13T17:51:01.319Z,32.13
2019-05-13T17:53:32.503Z,32.93
2019-05-13T17:56:02.407Z,33.06
2019-05-13T17:58:31.415Z,32.90
2019-05-13T18:01:01.670Z,33.36
2019-05-13T18:03:32.152Z,33.71
2019-05-13T18:06:06.422Z,33.95
2019-05-13T18:08:35.249Z,34.03
2019-05-13T18:11:05.964Z,34.21
2019-05-13T18:13:41.407Z,34.47
2019-05-13T18:16:12.584Z,34.35
2019-05-13T18:18:47.369Z,34.50
2019-05-13T18:21:17.725Z,34.31
2019-05-13T18:23:47.782Z,34.70
2019-05-13T18:26:16.978Z,35.24
2019-05-13T18:28:46.769Z,35.15
2019-05-13T18:31:16.677Z,35.22
2019-05-13T18:33:48.072Z,35.22
2019-05-13T18:36:18.789Z,35.84
2019-05-13T18:38:50.465Z,36.23
2019-05-13T18:41:21.345Z,36.14
2019-05-13T18:43:58.608Z,36.48
2019-05-13T18:46:32.282Z,36.83
2019-05-13T18:49:02.212Z,37.16
2019-05-13T18:51:33.005Z,37.44
2019-05-13T18:54:04.029Z,37.47
2019-05-13T18:56:33.550Z,37.92
2019-05-13T18:59:04.218Z,37.92
2019-05-13T19:01:34.801Z,37.75
2019-05-13T19:04:07.969Z,38.04
2019-05-13T19:06:42.281Z,37.94
2019-05-13T19:09:11.933Z,38.17
2019-05-13T19:11:42.724Z,38.64
2019-05-13T19:14:21.290Z,38.45
2019-05-13T19:16:54.959Z,39.43
2019-05-13T19:19:24.123Z,38.75
2019-05-13T19:21:53.785Z,39.14
2019-05-13T19:24:32.048Z,39.13
2019-05-13T19:27:03.774Z,39.41
2019-05-13T19:29:34.778Z,39.43
2019-05-13T19:32:12.809Z,39.47
2019-05-13T19:34:42.683Z,39.81
2019-05-13T19:37:13.903Z,40.37
2019-05-13T19:39:44.696Z,40.05
2019-05-13T19:42:35.773Z,40.32
2019-05-13T19:45:08.514Z,40.48
2019-05-13T19:47:41.798Z,41.48
2019-05-13T19:50:13.932Z,40.82
2019-05-13T19:52:44.382Z,40.78
2019-05-13T19:55:17.096Z,41.22
2019-05-13T19:57:47.916Z,41.53
2019-05-13T20:00:17.978Z,41.67
2019-05-13T20:02:47.375Z,41.77
2019-05-13T20:05:20.449Z,41.89
2019-05-13T20:07:52.286Z,41.84
2019-05-13T20:10:23.850Z,42.34
2019-05-13T20:13:17.565Z,42.79
2019-05-13T20:15:51.856Z,42.37
2019-05-13T20:18:22.913Z,42.66
2019-05-13T20:20:53.238Z,43.15
2019-05-13T20:23:24.585Z,43.81
2019-05-13T20:25:54.259Z,43.76
2019-05-13T20:28:24.822Z,44.00
2019-05-13T20:30:55.923Z,43.87
2019-05-13T20:33:27.584Z,44.01
2019-05-13T20:35:58.186Z,44.26
2019-05-13T20:38:31.678Z,44.36
2019-05-13T20:41:03.044Z,45.20
2019-05-13T20:43:33.977Z,45.11
2019-05-13T20:46:05.373Z,45.08
2019-05-13T20:48:36.147Z,45.75
2019-05-13T20:51:08.546Z,44.98
2019-05-13T20:53:41.091Z,45.32
2019-05-13T20:56:10.045Z,45.43
2019-05-13T20:58:39.098Z,45.88
2019-05-13T21:01:28.776Z,46.25
2019-05-13T21:04:01.653Z,46.16
2019-05-13T21:06:31.621Z,45.72
2019-05-13T21:09:01.619Z,46.03
2019-05-13T21:11:33.336Z,45.86
2019-05-13T21:14:02.710Z,45.69
2019-05-13T21:16:35.478Z,45.85
2019-05-13T21:19:08.075Z,46.37
2019-05-13T21:21:38.858Z,46.21
2019-05-13T21:24:08.947Z,46.33
2019-05-13T21:26:42.122Z,46.81
2019-05-13T21:29:14.043Z,46.55
2019-05-13T21:31:43.701Z,47.06
2019-05-13T21:34:13.364Z,47.57
2019-05-13T21:36:43.774Z,47.28
2019-05-13T21:39:13.803Z,47.59
2019-05-13T21:41:45.948Z,47.86
2019-05-13T21:44:15.418Z,48.06
2019-05-13T21:46:46.942Z,48.16
2019-05-13T21:49:21.358Z,48.29
2019-05-13T21:51:52.264Z,48.57
2019-05-13T21:54:26.374Z,48.41
2019-05-13T21:56:55.117Z,48.72
2019-05-13T21:59:26.205Z,48.68
2019-05-13T22:02:01.466Z,48.73
2019-05-13T22:04:35.420Z,48.26
2019-05-13T22:07:15.436Z,48.27
2019-05-13T22:09:51.221Z,48.46
2019-05-13T22:12:24.745Z,48.46
2019-05-13T22:15:35.959Z,48.43
2019-05-13T22:18:05.805Z,48.69
2019-05-13T22:20:47.331Z,48.64
2019-05-13T22:23:18.020Z,48.49
2019-05-13T22:25:53.486Z,48.51
2019-05-13T22:28:23.802Z,48.53
2019-05-13T22:30:56.976Z,48.47
2019-05-13T22:33:28.726Z,48.47
2019-05-13T22:36:01.592Z,48.76
2019-05-13T22:38:32.676Z,49.24
2019-05-13T22:41:02.925Z,48.83
2019-05-13T22:43:32.198Z,48.84
2019-05-13T22:46:01.066Z,49.14
2019-05-13T22:48:31.736Z,49.44
2019-05-13T22:51:01.327Z,49.27
2019-05-13T22:53:31.823Z,49.55
2019-05-13T22:56:00.780Z,49.41
2019-05-13T22:58:31.824Z,49.50
2019-05-13T23:01:02.381Z,50.10
2019-05-13T23:03:32.438Z,50.09
2019-05-13T23:06:01.564Z,50.02
2019-05-13T23:08:32.452Z,49.50
2019-05-13T23:11:02.021Z,49.66
2019-05-13T23:13:31.392Z,49.78
2019-05-13T23:16:02.146Z,50.23
2019-05-13T23:18:31.708Z,50.00
2019-05-13T23:21:02.367Z,50.09
2019-05-13T23:23:30.821Z,50.09
2019-05-13T23:25:59.535Z,50.48
2019-05-13T23:28:28.223Z,50.44
2019-05-13T23:30:56.845Z,51.19
2019-05-13T23:33:25.514Z,51.09
2019-05-13T23:35:54.330Z,51.08
2019-05-13T23:38:22.950Z,51.36
2019-05-13T23:40:51.769Z,51.06
2019-05-13T23:43:21.741Z,51.05
2019-05-13T23:45:51.264Z,51.13
2019-05-13T23:48:21.650Z,51.42
2019-05-13T23:50:52.077Z,51.34
2019-05-13T23:53:21.866Z,51.68
2019-05-13T23:55:52.084Z,51.55
2019-05-13T23:58:21.752Z,51.98
